createdAt,value
2022-10-25T00:00:40.918Z,14.80
2022-10-25T00:03:27.460Z,14.80
2022-10-25T00:06:14.630Z,14.80
2022-10-25T00:09:01.710Z,14.70
2022-10-25T00:11:48.403Z,14.70
2022-10-25T00:14:36.918Z,14.70
2022-10-25T00:17:23.850Z,14.70
2022-10-25T00:20:11.620Z,14.70
2022-10-25T00:22:58.998Z,14.70
2022-10-25T00:25:45.831Z,14.80
2022-10-25T00:28:32.393Z,14.80
2022-10-25T00:31:20.420Z,14.80
2022-10-25T00:34:07.280Z,14.80
2022-10-25T00:36:53.863Z,14.80
2022-10-25T00:39:40.391Z,14.80
2022-10-25T00:42:28.476Z,14.80
2022-10-25T00:45:26.796Z,14.80
2022-10-25T00:48:16.816Z,14.80
2022-10-25T00:51:04.704Z,14.80
2022-10-25T00:53:53.214Z,14.70
2022-10-25T00:56:43.879Z,14.70
2022-10-25T00:59:30.702Z,14.80
2022-10-25T01:02:18.896Z,14.70
2022-10-25T01:05:08.067Z,14.80
2022-10-25T01:07:55.176Z,14.70
2022-10-25T01:10:42.274Z,14.70
2022-10-25T01:13:28.877Z,14.70
2022-10-25T01:16:26.122Z,14.70
2022-10-25T01:19:31.837Z,14.60
2022-10-25T01:22:29.202Z,14.60
2022-10-25T01:25:46.105Z,14.70
2022-10-25T01:28:43.540Z,14.60
2022-10-25T01:31:38.407Z,14.60
2022-10-25T01:34:29.742Z,14.60
2022-10-25T01:37:22.727Z,14.60
2022-10-25T01:40:20.245Z,14.60
2022-10-25T01:43:15.324Z,14.70
2022-10-25T01:46:12.059Z,14.70
2022-10-25T01:49:05.099Z,14.70
2022-10-25T01:51:51.410Z,14.70
2022-10-25T01:54:38.009Z,14.70
2022-10-25T01:57:47.038Z,14.70
2022-10-25T02:00:41.423Z,14.80
2022-10-25T02:03:35.926Z,14.70
2022-10-25T02:06:31.617Z,14.70
2022-10-25T02:09:33.024Z,14.70
2022-10-25T02:12:26.751Z,14.80
2022-10-25T02:15:17.048Z,14.80
2022-10-25T02:18:08.144Z,14.80
2022-10-25T02:20:56.588Z,14.70
2022-10-25T02:23:45.402Z,14.70
2022-10-25T02:26:32.745Z,14.80
2022-10-25T02:29:20.885Z,14.80
2022-10-25T02:32:07.686Z,14.80
2022-10-25T02:34:54.396Z,14.80
2022-10-25T02:37:40.835Z,14.70
2022-10-25T02:40:28.944Z,14.80
2022-10-25T02:43:15.383Z,14.90
2022-10-25T02:46:07.382Z,14.80
2022-10-25T02:48:53.909Z,14.80
2022-10-25T02:51:40.330Z,14.80
2022-10-25T02:54:27.480Z,14.90
2022-10-25T02:57:15.570Z,14.90
2022-10-25T03:00:02.340Z,14.90
2022-10-25T03:02:49.604Z,14.90
2022-10-25T03:05:36.349Z,14.90
2022-10-25T03:08:23.417Z,14.90
2022-10-25T03:11:11.577Z,14.90
2022-10-25T03:13:59.644Z,14.90
2022-10-25T03:19:37.916Z,14.90
2022-10-25T03:22:24.387Z,14.90
2022-10-25T03:25:11.187Z,14.90
2022-10-25T03:28:00.343Z,15.00
2022-10-25T03:30:48.121Z,14.90
2022-10-25T03:33:34.723Z,15.00
2022-10-25T03:36:21.275Z,14.90
2022-10-25T03:39:07.663Z,14.90
2022-10-25T03:41:54.173Z,15.00
2022-10-25T03:44:40.716Z,15.00
2022-10-25T03:47:28.479Z,15.00
2022-10-25T03:50:15.475Z,15.10
2022-10-25T03:53:02.431Z,15.00
2022-10-25T03:55:49.943Z,15.10
2022-10-25T03:58:36.951Z,15.00
2022-10-25T04:01:23.662Z,15.00
2022-10-25T04:04:11.871Z,15.00
2022-10-25T04:06:58.599Z,15.10
2022-10-25T04:09:45.208Z,15.00
2022-10-25T04:12:31.739Z,15.00
2022-10-25T04:15:18.278Z,15.00
2022-10-25T04:18:05.101Z,15.00
2022-10-25T04:20:53.234Z,15.00
2022-10-25T04:23:40.030Z,15.00
2022-10-25T04:26:26.481Z,15.10
2022-10-25T04:29:13.460Z,15.10
2022-10-25T04:32:00.065Z,15.00
2022-10-25T04:34:46.503Z,15.10
2022-10-25T04:37:34.396Z,15.10
2022-10-25T04:40:23.945Z,15.00
2022-10-25T04:43:11.464Z,15.10
2022-10-25T04:46:01.453Z,15.10
2022-10-25T04:48:48.149Z,15.00
2022-10-25T04:51:35.371Z,15.00
2022-10-25T04:54:23.120Z,15.00
2022-10-25T04:57:09.864Z,15.00
2022-10-25T04:59:57.628Z,15.00
2022-10-25T05:02:44.242Z,15.00
2022-10-25T05:05:30.840Z,14.90
2022-10-25T05:08:17.447Z,14.90
2022-10-25T05:11:05.603Z,14.90
2022-10-25T05:13:52.306Z,14.90
2022-10-25T05:16:39.394Z,14.90
2022-10-25T05:19:26.288Z,14.90
2022-10-25T05:22:12.670Z,14.90
2022-10-25T05:24:59.308Z,14.90
2022-10-25T05:27:47.198Z,14.90
2022-10-25T05:30:33.808Z,15.00
2022-10-25T05:33:20.318Z,14.90
2022-10-25T05:36:07.234Z,14.90
2022-10-25T05:38:53.848Z,14.90
2022-10-25T05:41:40.315Z,14.90
2022-10-25T05:44:28.235Z,14.90
2022-10-25T05:47:14.979Z,14.80
2022-10-25T05:50:02.384Z,14.90
2022-10-25T05:52:49.099Z,14.80
2022-10-25T05:55:36.641Z,14.80
2022-10-25T05:58:23.300Z,14.80
2022-10-25T06:01:13.151Z,14.80
2022-10-25T06:03:59.844Z,14.80
2022-10-25T06:06:47.575Z,14.90
2022-10-25T06:09:34.240Z,14.90
2022-10-25T06:12:20.679Z,14.80
2022-10-25T06:15:08.564Z,14.80
2022-10-25T06:17:56.601Z,14.80
2022-10-25T06:20:43.405Z,14.80
2022-10-25T06:23:31.536Z,14.90
2022-10-25T06:26:20.345Z,14.90
2022-10-25T06:29:07.036Z,14.80
2022-10-25T06:31:53.586Z,14.80
2022-10-25T06:34:41.361Z,14.80
2022-10-25T06:37:28.088Z,14.80
2022-10-25T06:40:14.650Z,14.80
2022-10-25T06:43:01.400Z,14.80
2022-10-25T06:45:47.849Z,14.80
2022-10-25T06:48:34.720Z,14.90
2022-10-25T06:51:23.847Z,14.80
2022-10-25T06:54:10.584Z,14.90
2022-10-25T06:56:56.936Z,14.90
2022-10-25T06:59:43.496Z,14.90
2022-10-25T07:02:30.002Z,14.80
2022-10-25T07:05:17.059Z,14.90
2022-10-25T07:08:05.348Z,14.90
2022-10-25T07:10:54.866Z,14.90
2022-10-25T07:13:41.472Z,14.90
2022-10-25T07:16:29.089Z,14.90
2022-10-25T07:19:15.942Z,14.90
2022-10-25T07:22:02.358Z,14.80
2022-10-25T07:24:50.107Z,14.80
2022-10-25T07:27:36.951Z,14.80
2022-10-25T07:30:23.523Z,14.80
2022-10-25T07:33:10.513Z,14.90
2022-10-25T07:36:09.883Z,15.00
2022-10-25T07:38:57.368Z,14.90
2022-10-25T07:41:45.494Z,14.90
2022-10-25T07:44:32.407Z,14.90
2022-10-25T07:47:18.724Z,14.90
2022-10-25T07:50:05.565Z,15.00
2022-10-25T07:52:52.057Z,15.00
2022-10-25T07:55:38.569Z,15.10
2022-10-25T07:58:26.690Z,15.20
2022-10-25T08:01:21.646Z,15.20
2022-10-25T08:04:08.303Z,15.20
2022-10-25T08:06:54.824Z,15.20
2022-10-25T08:09:41.356Z,15.20
2022-10-25T08:12:28.040Z,15.10
2022-10-25T08:15:16.557Z,15.20
2022-10-25T08:18:04.718Z,15.30
2022-10-25T08:21:06.477Z,15.30
2022-10-25T08:23:53.125Z,15.40
2022-10-25T08:26:39.546Z,15.40
2022-10-25T08:29:27.784Z,15.50
2022-10-25T08:32:16.096Z,15.50
2022-10-25T08:35:02.957Z,15.60
2022-10-25T08:37:49.347Z,15.50
2022-10-25T08:40:47.897Z,15.50
2022-10-25T08:43:56.249Z,15.60
2022-10-25T08:46:50.275Z,15.50
2022-10-25T08:49:47.871Z,15.50
2022-10-25T08:52:38.925Z,15.50
2022-10-25T08:55:30.624Z,15.60
2022-10-25T08:58:24.519Z,15.70
2022-10-25T09:01:17.269Z,15.70
2022-10-25T09:04:04.199Z,15.80
2022-10-25T09:07:00.248Z,15.90
2022-10-25T09:09:53.940Z,16.00
2022-10-25T09:12:46.857Z,16.00
2022-10-25T09:15:46.892Z,16.20
2022-10-25T09:18:41.799Z,16.20
2022-10-25T09:21:39.239Z,16.20
2022-10-25T09:24:34.344Z,16.40
2022-10-25T09:27:32.672Z,16.30
2022-10-25T09:30:19.724Z,16.20
2022-10-25T09:33:11.522Z,16.20
2022-10-25T09:35:59.774Z,16.10
2022-10-25T09:38:51.459Z,16.10
2022-10-25T09:41:44.412Z,16.00
2022-10-25T09:44:38.404Z,16.00
2022-10-25T09:47:36.636Z,16.00
2022-10-25T09:50:28.130Z,16.00
2022-10-25T09:53:18.889Z,16.10
2022-10-25T09:56:08.500Z,16.10
2022-10-25T09:58:57.979Z,16.20
2022-10-25T10:01:44.990Z,16.30
2022-10-25T10:04:36.289Z,16.30
2022-10-25T10:07:27.502Z,16.30
2022-10-25T10:10:16.817Z,16.40
2022-10-25T10:13:07.420Z,16.40
2022-10-25T10:15:58.084Z,16.20
2022-10-25T10:18:44.687Z,16.10
2022-10-25T10:21:31.504Z,16.20
2022-10-25T10:24:20.868Z,16.30
2022-10-25T10:27:09.663Z,16.30
2022-10-25T10:29:59.069Z,16.30
2022-10-25T10:32:46.989Z,16.30
2022-10-25T10:35:35.129Z,16.30
2022-10-25T10:38:27.301Z,16.30
2022-10-25T10:41:16.104Z,16.30
2022-10-25T10:44:13.684Z,16.30
2022-10-25T10:47:00.893Z,16.30
2022-10-25T10:49:49.415Z,16.30
2022-10-25T10:52:40.986Z,16.30
2022-10-25T10:55:30.973Z,16.40
2022-10-25T10:58:20.092Z,16.30
2022-10-25T11:01:08.647Z,16.40
2022-10-25T11:04:00.228Z,16.30
2022-10-25T11:06:48.789Z,16.20
2022-10-25T11:09:35.495Z,16.30
2022-10-25T11:12:22.291Z,16.40
2022-10-25T11:15:12.711Z,16.50
2022-10-25T11:18:04.354Z,16.50
2022-10-25T11:20:56.740Z,16.40
2022-10-25T11:23:56.544Z,16.50
2022-10-25T11:26:54.279Z,16.70
2022-10-25T11:30:03.264Z,16.70
2022-10-25T11:33:24.783Z,16.60
2022-10-25T11:36:24.826Z,16.60
2022-10-25T11:39:24.855Z,16.60
2022-10-25T11:42:28.208Z,16.40
2022-10-25T11:45:32.920Z,16.40
2022-10-25T11:48:47.349Z,16.30
2022-10-25T11:51:43.057Z,16.30
2022-10-25T11:54:38.535Z,16.20
2022-10-25T11:57:38.883Z,16.30
2022-10-25T12:00:35.945Z,16.40
2022-10-25T12:03:47.537Z,16.60
2022-10-25T12:06:42.153Z,16.70
2022-10-25T12:09:42.042Z,16.90
2022-10-25T12:12:38.671Z,16.90
2022-10-25T12:15:34.619Z,17.00
2022-10-25T12:18:26.210Z,16.90
2022-10-25T12:21:19.227Z,17.00
2022-10-25T12:24:07.877Z,16.90
2022-10-25T12:26:56.693Z,16.90
2022-10-25T12:29:47.280Z,17.10
2022-10-25T12:32:38.487Z,17.00
2022-10-25T12:35:29.574Z,17.30
2022-10-25T12:38:21.323Z,17.30
2022-10-25T12:41:15.429Z,17.60
2022-10-25T12:44:17.892Z,17.80
2022-10-25T12:47:20.120Z,17.70
2022-10-25T12:50:45.711Z,17.70
2022-10-25T12:54:03.276Z,17.70
2022-10-25T12:57:00.734Z,18.00
2022-10-25T13:00:02.545Z,18.10
2022-10-25T13:03:33.289Z,18.20
2022-10-25T13:06:30.352Z,18.20
2022-10-25T13:09:22.174Z,18.00
2022-10-25T13:12:22.180Z,18.10
2022-10-25T13:15:20.290Z,17.90
2022-10-25T13:18:08.484Z,18.10
2022-10-25T13:20:55.264Z,18.20
2022-10-25T13:24:00.838Z,18.20
2022-10-25T13:27:20.037Z,18.30
2022-10-25T13:30:26.955Z,18.20
2022-10-25T13:33:33.772Z,18.00
2022-10-25T13:36:48.144Z,18.10
2022-10-25T13:39:39.988Z,17.90
2022-10-25T13:42:32.979Z,18.00
2022-10-25T13:45:33.561Z,17.90
2022-10-25T13:48:30.859Z,17.90
2022-10-25T13:51:21.482Z,17.90
2022-10-25T13:54:12.786Z,17.90
2022-10-25T13:57:00.183Z,17.80
2022-10-25T14:00:03.210Z,17.80
2022-10-25T14:03:34.596Z,17.70
2022-10-25T14:06:28.365Z,17.80
2022-10-25T14:09:24.459Z,17.80
2022-10-25T14:12:19.392Z,17.80
2022-10-25T14:15:15.673Z,17.80
2022-10-25T14:18:09.688Z,17.70
2022-10-25T14:21:01.858Z,17.70
2022-10-25T14:23:52.519Z,17.70
2022-10-25T14:26:40.005Z,17.60
2022-10-25T14:29:29.635Z,17.50
2022-10-25T14:32:20.977Z,17.50
2022-10-25T14:35:13.895Z,17.50
2022-10-25T14:38:01.054Z,17.40
2022-10-25T14:40:54.280Z,17.40
2022-10-25T14:43:42.484Z,17.40
2022-10-25T14:46:31.132Z,17.50
2022-10-25T14:49:17.927Z,17.50
2022-10-25T14:52:07.746Z,17.40
2022-10-25T14:54:58.758Z,17.30
2022-10-25T14:57:47.739Z,17.40
2022-10-25T15:00:34.350Z,17.40
2022-10-25T15:03:21.375Z,17.20
2022-10-25T15:06:08.186Z,17.30
2022-10-25T15:09:14.857Z,17.30
2022-10-25T15:12:07.489Z,17.10
2022-10-25T15:14:56.822Z,17.20
2022-10-25T15:17:51.758Z,17.30
2022-10-25T15:20:38.301Z,17.20
2022-10-25T15:23:25.521Z,17.30
2022-10-25T15:26:27.296Z,17.20
2022-10-25T15:29:13.892Z,17.10
2022-10-25T15:32:01.811Z,17.10
2022-10-25T15:34:50.523Z,17.00
2022-10-25T15:37:41.029Z,17.00
2022-10-25T15:40:27.691Z,17.00
2022-10-25T15:43:14.295Z,17.00
2022-10-25T15:46:01.633Z,16.90
2022-10-25T15:48:49.775Z,16.90
2022-10-25T15:51:39.540Z,16.80
2022-10-25T15:54:26.328Z,16.70
2022-10-25T15:57:12.852Z,16.70
2022-10-25T15:59:59.199Z,16.60
2022-10-25T16:02:46.499Z,16.50
2022-10-25T16:05:37.312Z,16.50
2022-10-25T16:08:23.970Z,16.50
2022-10-25T16:11:17.315Z,16.50
2022-10-25T16:14:04.997Z,16.40
2022-10-25T16:16:52.209Z,16.40
2022-10-25T16:19:39.052Z,16.30
2022-10-25T16:22:26.932Z,16.20
2022-10-25T16:25:13.940Z,16.10
2022-10-25T16:28:00.971Z,16.00
2022-10-25T16:30:48.489Z,16.00
2022-10-25T16:33:34.764Z,15.90
2022-10-25T16:36:21.248Z,15.90
2022-10-25T16:39:11.396Z,15.90
2022-10-25T16:41:58.417Z,15.80
2022-10-25T16:44:45.071Z,15.80
2022-10-25T16:47:31.602Z,15.80
2022-10-25T16:50:23.065Z,15.70
2022-10-25T16:53:12.606Z,15.70
2022-10-25T16:56:00.956Z,15.70
2022-10-25T16:58:47.296Z,15.60
2022-10-25T17:01:39.013Z,15.50
2022-10-25T17:04:28.798Z,15.40
2022-10-25T17:07:15.892Z,15.30
2022-10-25T17:10:02.545Z,15.30
2022-10-25T17:12:52.395Z,15.30
2022-10-25T17:15:38.865Z,15.30
2022-10-25T17:18:26.956Z,15.20
2022-10-25T17:21:16.536Z,15.10
2022-10-25T17:24:03.901Z,15.10
2022-10-25T17:26:50.436Z,15.00
2022-10-25T17:29:38.580Z,15.00
2022-10-25T17:32:25.005Z,14.90
2022-10-25T17:35:11.919Z,14.80
2022-10-25T17:37:58.783Z,14.70
2022-10-25T17:40:47.150Z,14.70
2022-10-25T17:43:35.486Z,14.60
2022-10-25T17:46:25.935Z,14.00
2022-10-25T17:49:12.403Z,14.40
2022-10-25T17:51:58.934Z,14.40
2022-10-25T17:54:45.392Z,14.30
2022-10-25T17:57:31.796Z,14.20
2022-10-25T18:00:18.259Z,14.20
2022-10-25T18:03:06.364Z,14.20
2022-10-25T18:05:52.921Z,14.10
2022-10-25T18:08:39.749Z,14.10
2022-10-25T18:11:28.421Z,14.10
2022-10-25T18:14:15.120Z,14.10
2022-10-25T18:17:01.653Z,14.00
2022-10-25T18:19:49.320Z,13.90
2022-10-25T18:22:36.063Z,13.90
2022-10-25T18:25:22.591Z,13.80
2022-10-25T18:28:09.253Z,13.80
2022-10-25T18:31:00.927Z,13.70
2022-10-25T18:33:48.357Z,13.70
2022-10-25T18:36:36.267Z,13.70
2022-10-25T18:39:23.056Z,13.70
2022-10-25T18:42:09.441Z,13.70
2022-10-25T18:44:56.048Z,13.50
2022-10-25T18:47:42.524Z,13.60
2022-10-25T18:50:28.966Z,13.60
2022-10-25T18:53:17.352Z,13.60
2022-10-25T18:56:03.893Z,13.50
2022-10-25T18:58:50.612Z,13.60
2022-10-25T19:01:38.058Z,13.50
2022-10-25T19:04:25.025Z,13.40
2022-10-25T19:07:11.632Z,13.50
2022-10-25T19:09:59.673Z,13.50
2022-10-25T19:12:46.778Z,13.60
2022-10-25T19:15:33.733Z,13.50
2022-10-25T19:18:20.378Z,13.50
2022-10-25T19:21:09.072Z,13.50
2022-10-25T19:23:57.048Z,13.50
2022-10-25T19:26:45.167Z,13.50
2022-10-25T19:29:31.719Z,13.40
2022-10-25T19:32:18.139Z,13.40
2022-10-25T19:35:04.747Z,13.40
2022-10-25T19:37:51.662Z,13.30
2022-10-25T19:40:38.695Z,13.30
2022-10-25T19:43:26.625Z,13.30
2022-10-25T19:46:14.103Z,13.30
2022-10-25T19:49:01.254Z,13.30
2022-10-25T19:51:47.975Z,13.30
2022-10-25T19:54:34.325Z,13.30
2022-10-25T19:57:20.740Z,13.30
2022-10-25T20:00:12.716Z,13.30
2022-10-25T20:03:01.128Z,13.20
2022-10-25T20:05:47.519Z,13.20
2022-10-25T20:08:34.690Z,13.20
2022-10-25T20:11:22.604Z,13.20
2022-10-25T20:14:09.800Z,13.20
2022-10-25T20:16:57.791Z,13.20
2022-10-25T20:19:44.468Z,13.10
2022-10-25T20:22:32.100Z,13.10
2022-10-25T20:25:18.610Z,13.20
2022-10-25T20:28:06.181Z,13.20
2022-10-25T20:30:53.099Z,13.20
2022-10-25T20:33:41.104Z,13.10
2022-10-25T20:36:28.290Z,13.10
2022-10-25T20:39:14.914Z,13.10
2022-10-25T20:42:01.348Z,13.00
2022-10-25T20:44:47.837Z,13.00
2022-10-25T20:47:34.418Z,12.90
2022-10-25T20:50:22.228Z,12.90
2022-10-25T20:53:10.789Z,12.80
2022-10-25T20:55:57.730Z,12.80
2022-10-25T20:58:44.551Z,12.70
2022-10-25T21:01:31.450Z,12.70
2022-10-25T21:04:25.922Z,12.70
2022-10-25T21:07:24.205Z,12.70
2022-10-25T21:10:11.245Z,12.60
2022-10-25T21:12:59.667Z,12.60
2022-10-25T21:15:47.566Z,12.60
2022-10-25T21:18:34.223Z,12.50
2022-10-25T21:21:21.999Z,12.50
2022-10-25T21:24:11.543Z,12.50
2022-10-25T21:26:58.126Z,12.40
2022-10-25T21:29:44.776Z,12.30
2022-10-25T21:32:31.172Z,12.30
2022-10-25T21:35:18.329Z,12.30
2022-10-25T21:38:05.008Z,12.30
2022-10-25T21:40:52.924Z,12.30
2022-10-25T21:43:43.786Z,12.20
2022-10-25T21:46:30.468Z,12.20
2022-10-25T21:49:17.132Z,12.20
2022-10-25T21:52:03.436Z,12.20
2022-10-25T21:54:50.024Z,12.20
2022-10-25T21:57:37.791Z,12.20
2022-10-25T22:00:24.513Z,12.20
2022-10-25T22:03:10.991Z,12.10
2022-10-25T22:05:57.641Z,12.10
2022-10-25T22:08:44.662Z,12.10
2022-10-25T22:11:33.383Z,12.10
2022-10-25T22:14:21.484Z,12.10
2022-10-25T22:17:08.933Z,12.00
2022-10-25T22:19:55.722Z,12.00
2022-10-25T22:22:42.144Z,12.00
2022-10-25T22:25:28.621Z,11.90
2022-10-25T22:28:15.674Z,11.90
2022-10-25T22:31:06.536Z,11.90
2022-10-25T22:33:55.159Z,11.80
2022-10-25T22:36:42.951Z,11.70
2022-10-25T22:39:29.547Z,11.70
2022-10-25T22:42:15.875Z,11.70
2022-10-25T22:45:02.479Z,11.60
2022-10-25T22:47:52.531Z,11.60
2022-10-25T22:50:39.094Z,11.60
2022-10-25T22:53:25.651Z,11.50
2022-10-25T22:56:13.975Z,11.50
2022-10-25T22:59:02.996Z,11.50
2022-10-25T23:01:49.377Z,11.40
2022-10-25T23:04:37.187Z,11.40
2022-10-25T23:07:24.011Z,11.40
2022-10-25T23:10:10.848Z,11.40
2022-10-25T23:12:57.491Z,11.30
2022-10-25T23:15:44.076Z,11.30
2022-10-25T23:18:31.315Z,11.30
2022-10-25T23:21:20.354Z,11.30
2022-10-25T23:24:07.611Z,11.30
2022-10-25T23:26:54.440Z,11.30
2022-10-25T23:29:40.861Z,11.20
2022-10-25T23:32:27.354Z,11.20
2022-10-25T23:35:13.903Z,11.10
2022-10-25T23:38:01.968Z,11.10
2022-10-25T23:40:49.605Z,11.10
2022-10-25T23:43:36.518Z,11.10
2022-10-25T23:46:23.068Z,11.00
2022-10-25T23:49:09.539Z,11.00
2022-10-25T23:51:56.021Z,10.90
2022-10-25T23:54:43.735Z,10.90
2022-10-25T23:57:30.433Z,10.90
